sensor_id;sensor_type;location;lat;lon;timestamp;temperature;humidity
19870;DHT22;10097;50.862;4.696;2023-05-10T00:01:37;13.80;99.90
19870;DHT22;10097;50.862;4.696;2023-05-10T00:04:03;13.80;99.90
19870;DHT22;10097;50.862;4.696;2023-05-10T00:06:29;13.70;99.90
19870;DHT22;10097;50.862;4.696;2023-05-10T00:08:55;13.80;99.90
19870;DHT22;10097;50.862;4.696;2023-05-10T00:11:21;13.80;99.90
19870;DHT22;10097;50.862;4.696;2023-05-10T00:13:47;13.80;99.90
19870;DHT22;10097;50.862;4.696;2023-05-10T00:16:13;13.80;99.90
19870;DHT22;10097;50.862;4.696;2023-05-10T00:18:39;13.80;99.90
19870;DHT22;10097;50.862;4.696;2023-05-10T00:21:05;13.80;99.90
19870;DHT22;10097;50.862;4.696;2023-05-10T00:23:31;13.80;99.90
19870;DHT22;10097;50.862;4.696;2023-05-10T00:25:57;13.80;99.90
19870;DHT22;10097;50.862;4.696;2023-05-10T00:28:22;13.90;99.90
19870;DHT22;10097;50.862;4.696;2023-05-10T00:30:48;13.80;99.90
19870;DHT22;10097;50.862;4.696;2023-05-10T00:33:14;13.90;99.90
19870;DHT22;10097;50.862;4.696;2023-05-10T00:35:39;14.00;99.90
19870;DHT22;10097;50.862;4.696;2023-05-10T00:38:05;14.10;99.90
19870;DHT22;10097;50.862;4.696;2023-05-10T00:40:31;14.10;99.90
19870;DHT22;10097;50.862;4.696;2023-05-10T00:42:57;14.10;99.90
19870;DHT22;10097;50.862;4.696;2023-05-10T00:45:24;14.10;99.90
19870;DHT22;10097;50.862;4.696;2023-05-10T00:47:51;14.20;99.90
19870;DHT22;10097;50.862;4.696;2023-05-10T00:50:20;14.20;99.90
19870;DHT22;10097;50.862;4.696;2023-05-10T00:52:46;14.20;99.90
19870;DHT22;10097;50.862;4.696;2023-05-10T00:55:12;14.20;99.90
19870;DHT22;10097;50.862;4.696;2023-05-10T00:57:38;14.20;99.90
19870;DHT22;10097;50.862;4.696;2023-05-10T01:00:04;14.20;99.90
19870;DHT22;10097;50.862;4.696;2023-05-10T01:02:30;14.20;99.90
19870;DHT22;10097;50.862;4.696;2023-05-10T01:04:56;14.20;99.90
19870;DHT22;10097;50.862;4.696;2023-05-10T01:07:21;14.20;99.90
19870;DHT22;10097;50.862;4.696;2023-05-10T01:09:47;14.20;99.90
19870;DHT22;10097;50.862;4.696;2023-05-10T01:12:13;14.20;99.90
19870;DHT22;10097;50.862;4.696;2023-05-10T01:14:39;14.20;99.90
19870;DHT22;10097;50.862;4.696;2023-05-10T01:17:06;14.10;99.90
19870;DHT22;10097;50.862;4.696;2023-05-10T01:19:34;14.10;99.90
19870;DHT22;10097;50.862;4.696;2023-05-10T01:39:01;13.90;99.90
19870;DHT22;10097;50.862;4.696;2023-05-10T01:44:39;13.90;99.90
19870;DHT22;10097;50.862;4.696;2023-05-10T01:47:17;14.00;99.90
19870;DHT22;10097;50.862;4.696;2023-05-10T01:49:49;13.90;99.90
19870;DHT22;10097;50.862;4.696;2023-05-10T01:52:18;13.90;99.90
19870;DHT22;10097;50.862;4.696;2023-05-10T01:54:55;13.90;99.90
19870;DHT22;10097;50.862;4.696;2023-05-10T01:57:24;14.00;99.90
19870;DHT22;10097;50.862;4.696;2023-05-10T01:59:50;13.90;99.90
19870;DHT22;10097;50.862;4.696;2023-05-10T02:02:20;13.90;99.90
19870;DHT22;10097;50.862;4.696;2023-05-10T02:04:46;13.80;99.90
19870;DHT22;10097;50.862;4.696;2023-05-10T02:07:14;13.80;99.90
19870;DHT22;10097;50.862;4.696;2023-05-10T02:09:40;13.80;99.90
19870;DHT22;10097;50.862;4.696;2023-05-10T02:12:09;13.80;99.90
19870;DHT22;10097;50.862;4.696;2023-05-10T02:14:39;13.90;99.90
19870;DHT22;10097;50.862;4.696;2023-05-10T02:17:07;13.80;99.90
19870;DHT22;10097;50.862;4.696;2023-05-10T02:19:34;13.70;99.90
19870;DHT22;10097;50.862;4.696;2023-05-10T02:22:02;13.80;99.90
19870;DHT22;10097;50.862;4.696;2023-05-10T02:24:29;13.80;99.90
19870;DHT22;10097;50.862;4.696;2023-05-10T02:26:55;13.90;99.90
19870;DHT22;10097;50.862;4.696;2023-05-10T02:29:23;14.00;99.90
19870;DHT22;10097;50.862;4.696;2023-05-10T02:31:52;14.00;99.90
19870;DHT22;10097;50.862;4.696;2023-05-10T02:34:20;14.00;99.90
19870;DHT22;10097;50.862;4.696;2023-05-10T02:36:47;14.10;99.90
19870;DHT22;10097;50.862;4.696;2023-05-10T02:39:14;14.20;99.90
19870;DHT22;10097;50.862;4.696;2023-05-10T02:41:41;14.20;99.90
19870;DHT22;10097;50.862;4.696;2023-05-10T02:44:09;14.20;99.90
19870;DHT22;10097;50.862;4.696;2023-05-10T02:46:35;14.20;99.90
19870;DHT22;10097;50.862;4.696;2023-05-10T02:49:03;14.20;99.90
19870;DHT22;10097;50.862;4.696;2023-05-10T02:51:31;14.20;99.90
19870;DHT22;10097;50.862;4.696;2023-05-10T02:54:03;14.20;99.90
19870;DHT22;10097;50.862;4.696;2023-05-10T02:56:34;14.20;99.90
19870;DHT22;10097;50.862;4.696;2023-05-10T02:59:01;14.20;99.90
19870;DHT22;10097;50.862;4.696;2023-05-10T03:01:27;14.20;99.90
19870;DHT22;10097;50.862;4.696;2023-05-10T03:03:53;14.30;99.90
19870;DHT22;10097;50.862;4.696;2023-05-10T03:06:19;14.40;99.90
19870;DHT22;10097;50.862;4.696;2023-05-10T03:08:44;14.30;99.90
19870;DHT22;10097;50.862;4.696;2023-05-10T03:13:44;14.30;99.90
19870;DHT22;10097;50.862;4.696;2023-05-10T03:16:24;14.30;99.90
19870;DHT22;10097;50.862;4.696;2023-05-10T03:19:12;14.30;99.90
19870;DHT22;10097;50.862;4.696;2023-05-10T03:21:42;14.20;99.90
19870;DHT22;10097;50.862;4.696;2023-05-10T03:24:11;14.10;99.90
19870;DHT22;10097;50.862;4.696;2023-05-10T03:26:38;14.00;99.90
19870;DHT22;10097;50.862;4.696;2023-05-10T03:29:06;14.10;99.90
19870;DHT22;10097;50.862;4.696;2023-05-10T03:31:33;14.00;99.90
19870;DHT22;10097;50.862;4.696;2023-05-10T03:33:59;14.00;99.90
19870;DHT22;10097;50.862;4.696;2023-05-10T03:36:24;14.00;99.90
19870;DHT22;10097;50.862;4.696;2023-05-10T03:38:50;14.00;99.90
19870;DHT22;10097;50.862;4.696;2023-05-10T03:41:16;14.00;99.90
19870;DHT22;10097;50.862;4.696;2023-05-10T03:43:41;14.20;99.90
19870;DHT22;10097;50.862;4.696;2023-05-10T03:46:07;14.10;99.90
19870;DHT22;10097;50.862;4.696;2023-05-10T03:48:33;14.00;99.90
19870;DHT22;10097;50.862;4.696;2023-05-10T03:50:59;13.90;99.90
19870;DHT22;10097;50.862;4.696;2023-05-10T03:53:25;13.90;99.90
19870;DHT22;10097;50.862;4.696;2023-05-10T03:55:50;13.70;99.90
19870;DHT22;10097;50.862;4.696;2023-05-10T03:58:16;13.70;99.90
19870;DHT22;10097;50.862;4.696;2023-05-10T04:00:42;13.60;99.90
19870;DHT22;10097;50.862;4.696;2023-05-10T04:03:10;13.50;99.90
19870;DHT22;10097;50.862;4.696;2023-05-10T04:05:36;13.30;99.90
19870;DHT22;10097;50.862;4.696;2023-05-10T04:08:03;13.30;99.90
19870;DHT22;10097;50.862;4.696;2023-05-10T04:10:28;13.20;99.90
19870;DHT22;10097;50.862;4.696;2023-05-10T04:12:54;13.20;99.90
19870;DHT22;10097;50.862;4.696;2023-05-10T04:15:20;13.20;99.90
19870;DHT22;10097;50.862;4.696;2023-05-10T04:17:46;13.10;99.90
19870;DHT22;10097;50.862;4.696;2023-05-10T04:20:12;13.20;99.90
19870;DHT22;10097;50.862;4.696;2023-05-10T04:22:38;13.10;99.90
19870;DHT22;10097;50.862;4.696;2023-05-10T04:25:04;13.10;99.90
19870;DHT22;10097;50.862;4.696;2023-05-10T04:27:30;13.10;99.90
19870;DHT22;10097;50.862;4.696;2023-05-10T04:29:56;13.10;99.90
19870;DHT22;10097;50.862;4.696;2023-05-10T04:32:22;13.20;99.90
19870;DHT22;10097;50.862;4.696;2023-05-10T04:34:48;13.20;99.90
19870;DHT22;10097;50.862;4.696;2023-05-10T04:37:13;13.40;99.90
19870;DHT22;10097;50.862;4.696;2023-05-10T04:39:39;13.30;99.90
19870;DHT22;10097;50.862;4.696;2023-05-10T04:42:05;13.20;99.90
19870;DHT22;10097;50.862;4.696;2023-05-10T04:44:31;13.20;99.90
19870;DHT22;10097;50.862;4.696;2023-05-10T04:46:57;13.20;99.90
19870;DHT22;10097;50.862;4.696;2023-05-10T04:49:23;13.20;99.90
19870;DHT22;10097;50.862;4.696;2023-05-10T04:51:48;13.20;99.90
19870;DHT22;10097;50.862;4.696;2023-05-10T04:54:14;13.20;99.90
19870;DHT22;10097;50.862;4.696;2023-05-10T04:56:40;13.30;99.90
19870;DHT22;10097;50.862;4.696;2023-05-10T04:59:06;13.30;99.90
19870;DHT22;10097;50.862;4.696;2023-05-10T05:01:32;13.30;99.90
19870;DHT22;10097;50.862;4.696;2023-05-10T05:03:58;13.30;99.90
19870;DHT22;10097;50.862;4.696;2023-05-10T05:06:23;13.40;99.90
19870;DHT22;10097;50.862;4.696;2023-05-10T05:08:50;13.40;99.90
19870;DHT22;10097;50.862;4.696;2023-05-10T05:11:17;13.50;99.90
19870;DHT22;10097;50.862;4.696;2023-05-10T05:13:43;13.60;99.90
19870;DHT22;10097;50.862;4.696;2023-05-10T05:16:08;13.60;99.90
19870;DHT22;10097;50.862;4.696;2023-05-10T05:18:34;13.60;99.90
19870;DHT22;10097;50.862;4.696;2023-05-10T05:21:00;13.50;99.90
19870;DHT22;10097;50.862;4.696;2023-05-10T05:23:26;13.40;99.90
19870;DHT22;10097;50.862;4.696;2023-05-10T05:25:52;13.40;99.90
19870;DHT22;10097;50.862;4.696;2023-05-10T05:28:19;13.50;99.90
19870;DHT22;10097;50.862;4.696;2023-05-10T05:30:45;13.60;99.90
19870;DHT22;10097;50.862;4.696;2023-05-10T05:33:12;13.70;99.90
19870;DHT22;10097;50.862;4.696;2023-05-10T05:35:38;13.80;99.90
19870;DHT22;10097;50.862;4.696;2023-05-10T05:38:04;13.70;99.90
19870;DHT22;10097;50.862;4.696;2023-05-10T05:40:29;13.60;99.90
19870;DHT22;10097;50.862;4.696;2023-05-10T05:42:55;13.60;99.90
19870;DHT22;10097;50.862;4.696;2023-05-10T05:45:21;13.70;99.90
19870;DHT22;10097;50.862;4.696;2023-05-10T05:47:46;13.60;99.90
19870;DHT22;10097;50.862;4.696;2023-05-10T05:50:12;13.60;99.90
19870;DHT22;10097;50.862;4.696;2023-05-10T05:52:38;13.60;99.90
19870;DHT22;10097;50.862;4.696;2023-05-10T05:55:04;13.70;99.90
19870;DHT22;10097;50.862;4.696;2023-05-10T05:57:30;13.70;99.90
19870;DHT22;10097;50.862;4.696;2023-05-10T05:59:55;13.70;99.90
19870;DHT22;10097;50.862;4.696;2023-05-10T06:02:21;13.80;99.90
19870;DHT22;10097;50.862;4.696;2023-05-10T06:04:47;13.80;99.90
19870;DHT22;10097;50.862;4.696;2023-05-10T06:07:12;13.70;99.90
19870;DHT22;10097;50.862;4.696;2023-05-10T06:09:38;13.70;99.90
19870;DHT22;10097;50.862;4.696;2023-05-10T06:12:04;13.80;99.90
19870;DHT22;10097;50.862;4.696;2023-05-10T06:14:30;13.90;99.90
19870;DHT22;10097;50.862;4.696;2023-05-10T06:16:56;13.90;99.90
19870;DHT22;10097;50.862;4.696;2023-05-10T06:19:21;14.00;99.90
19870;DHT22;10097;50.862;4.696;2023-05-10T06:21:47;14.10;99.90
19870;DHT22;10097;50.862;4.696;2023-05-10T06:24:13;14.20;99.90
19870;DHT22;10097;50.862;4.696;2023-05-10T06:26:38;14.20;99.90
19870;DHT22;10097;50.862;4.696;2023-05-10T06:29:04;14.10;99.90
19870;DHT22;10097;50.862;4.696;2023-05-10T06:31:30;14.20;99.90
19870;DHT22;10097;50.862;4.696;2023-05-10T06:33:55;14.10;99.90
19870;DHT22;10097;50.862;4.696;2023-05-10T06:36:21;14.00;99.90
19870;DHT22;10097;50.862;4.696;2023-05-10T06:38:47;14.10;99.90
19870;DHT22;10097;50.862;4.696;2023-05-10T06:41:13;14.20;99.90
19870;DHT22;10097;50.862;4.696;2023-05-10T06:43:39;14.30;99.90
19870;DHT22;10097;50.862;4.696;2023-05-10T06:46:06;14.50;99.90
19870;DHT22;10097;50.862;4.696;2023-05-10T06:48:32;14.60;99.90
19870;DHT22;10097;50.862;4.696;2023-05-10T06:50:58;14.60;99.90
19870;DHT22;10097;50.862;4.696;2023-05-10T06:53:24;14.70;99.90
19870;DHT22;10097;50.862;4.696;2023-05-10T06:55:49;14.60;99.90
19870;DHT22;10097;50.862;4.696;2023-05-10T06:58:15;14.50;99.90
19870;DHT22;10097;50.862;4.696;2023-05-10T07:00:41;14.70;99.90
19870;DHT22;10097;50.862;4.696;2023-05-10T07:03:09;14.60;99.90
19870;DHT22;10097;50.862;4.696;2023-05-10T07:05:35;14.60;99.90
19870;DHT22;10097;50.862;4.696;2023-05-10T07:08:01;14.60;99.90
19870;DHT22;10097;50.862;4.696;2023-05-10T07:10:27;14.70;99.90
19870;DHT22;10097;50.862;4.696;2023-05-10T07:12:52;14.60;99.90
19870;DHT22;10097;50.862;4.696;2023-05-10T07:15:18;14.70;99.90
19870;DHT22;10097;50.862;4.696;2023-05-10T07:17:44;14.60;99.90
19870;DHT22;10097;50.862;4.696;2023-05-10T07:20:09;14.80;99.90
19870;DHT22;10097;50.862;4.696;2023-05-10T07:22:35;14.80;99.90
19870;DHT22;10097;50.862;4.696;2023-05-10T07:25:01;14.70;99.90
19870;DHT22;10097;50.862;4.696;2023-05-10T07:27:27;14.50;99.90
19870;DHT22;10097;50.862;4.696;2023-05-10T07:29:53;14.60;99.90
19870;DHT22;10097;50.862;4.696;2023-05-10T07:32:20;14.60;99.90
19870;DHT22;10097;50.862;4.696;2023-05-10T07:34:45;14.50;99.90
19870;DHT22;10097;50.862;4.696;2023-05-10T07:37:11;14.30;99.90
19870;DHT22;10097;50.862;4.696;2023-05-10T07:39:37;14.30;99.90
19870;DHT22;10097;50.862;4.696;2023-05-10T07:42:03;14.20;99.90
19870;DHT22;10097;50.862;4.696;2023-05-10T07:44:28;14.30;99.90
19870;DHT22;10097;50.862;4.696;2023-05-10T07:46:54;14.30;99.90
19870;DHT22;10097;50.862;4.696;2023-05-10T07:49:21;14.40;99.90
19870;DHT22;10097;50.862;4.696;2023-05-10T07:51:49;14.60;99.90
19870;DHT22;10097;50.862;4.696;2023-05-10T07:54:15;14.60;99.90
19870;DHT22;10097;50.862;4.696;2023-05-10T07:56:41;14.50;99.90
19870;DHT22;10097;50.862;4.696;2023-05-10T07:59:15;14.50;99.90
19870;DHT22;10097;50.862;4.696;2023-05-10T08:01:41;14.30;99.90
19870;DHT22;10097;50.862;4.696;2023-05-10T08:04:07;14.20;99.90
19870;DHT22;10097;50.862;4.696;2023-05-10T08:06:34;14.00;99.90
19870;DHT22;10097;50.862;4.696;2023-05-10T08:08:59;13.90;99.90
19870;DHT22;10097;50.862;4.696;2023-05-10T08:11:25;14.10;99.90
19870;DHT22;10097;50.862;4.696;2023-05-10T08:13:53;14.00;99.90
19870;DHT22;10097;50.862;4.696;2023-05-10T08:16:19;14.00;99.90
19870;DHT22;10097;50.862;4.696;2023-05-10T08:18:45;14.00;99.90
19870;DHT22;10097;50.862;4.696;2023-05-10T08:21:15;14.00;99.90
19870;DHT22;10097;50.862;4.696;2023-05-10T08:23:41;13.90;99.90
19870;DHT22;10097;50.862;4.696;2023-05-10T08:26:06;13.90;99.90
19870;DHT22;10097;50.862;4.696;2023-05-10T08:28:32;14.00;99.90
19870;DHT22;10097;50.862;4.696;2023-05-10T08:30:58;13.90;99.90
19870;DHT22;10097;50.862;4.696;2023-05-10T08:33:25;14.00;99.90
19870;DHT22;10097;50.862;4.696;2023-05-10T08:35:51;14.10;99.90
19870;DHT22;10097;50.862;4.696;2023-05-10T08:38:18;14.10;99.90
19870;DHT22;10097;50.862;4.696;2023-05-10T08:40:44;14.00;99.90
19870;DHT22;10097;50.862;4.696;2023-05-10T08:43:12;13.90;99.90
19870;DHT22;10097;50.862;4.696;2023-05-10T08:45:42;14.00;99.90
19870;DHT22;10097;50.862;4.696;2023-05-10T08:48:09;13.90;99.90
19870;DHT22;10097;50.862;4.696;2023-05-10T08:50:37;13.80;99.90
19870;DHT22;10097;50.862;4.696;2023-05-10T08:53:11;13.70;99.90
19870;DHT22;10097;50.862;4.696;2023-05-10T08:55:37;13.60;99.90
19870;DHT22;10097;50.862;4.696;2023-05-10T08:58:07;13.70;99.90
19870;DHT22;10097;50.862;4.696;2023-05-10T09:00:33;13.70;99.90
19870;DHT22;10097;50.862;4.696;2023-05-10T09:02:59;13.70;99.90
19870;DHT22;10097;50.862;4.696;2023-05-10T09:05:25;13.70;99.90
19870;DHT22;10097;50.862;4.696;2023-05-10T09:07:51;13.90;99.90
19870;DHT22;10097;50.862;4.696;2023-05-10T09:10:17;14.00;99.90
19870;DHT22;10097;50.862;4.696;2023-05-10T09:12:44;13.90;99.90
19870;DHT22;10097;50.862;4.696;2023-05-10T09:15:11;13.80;99.90
19870;DHT22;10097;50.862;4.696;2023-05-10T09:17:38;13.80;99.90
19870;DHT22;10097;50.862;4.696;2023-05-10T09:20:06;13.90;99.90
19870;DHT22;10097;50.862;4.696;2023-05-10T09:22:33;14.00;99.90
19870;DHT22;10097;50.862;4.696;2023-05-10T09:27:32;14.10;99.90
19870;DHT22;10097;50.862;4.696;2023-05-10T09:29:57;14.00;99.90
19870;DHT22;10097;50.862;4.696;2023-05-10T09:32:45;14.00;99.90
19870;DHT22;10097;50.862;4.696;2023-05-10T09:35:20;14.00;99.90
19870;DHT22;10097;50.862;4.696;2023-05-10T09:37:48;14.10;99.90
19870;DHT22;10097;50.862;4.696;2023-05-10T09:40:18;14.10;99.90
19870;DHT22;10097;50.862;4.696;2023-05-10T09:43:04;14.20;99.90
19870;DHT22;10097;50.862;4.696;2023-05-10T09:45:35;14.10;99.90
19870;DHT22;10097;50.862;4.696;2023-05-10T09:48:02;14.00;99.90
19870;DHT22;10097;50.862;4.696;2023-05-10T09:50:29;14.00;99.90
19870;DHT22;10097;50.862;4.696;2023-05-10T09:52:57;13.90;99.90
19870;DHT22;10097;50.862;4.696;2023-05-10T09:58:04;14.20;99.90
19870;DHT22;10097;50.862;4.696;2023-05-10T10:00:39;14.20;99.90
19870;DHT22;10097;50.862;4.696;2023-05-10T10:03:05;14.10;99.90
19870;DHT22;10097;50.862;4.696;2023-05-10T10:05:32;14.30;99.90
19870;DHT22;10097;50.862;4.696;2023-05-10T10:07:59;14.50;99.90
19870;DHT22;10097;50.862;4.696;2023-05-10T10:10:26;14.50;99.90
19870;DHT22;10097;50.862;4.696;2023-05-10T10:12:53;14.60;99.90
19870;DHT22;10097;50.862;4.696;2023-05-10T10:15:20;14.70;99.90
19870;DHT22;10097;50.862;4.696;2023-05-10T10:17:46;14.80;99.90
19870;DHT22;10097;50.862;4.696;2023-05-10T10:20:14;14.80;99.90
19870;DHT22;10097;50.862;4.696;2023-05-10T10:22:40;14.70;99.90
19870;DHT22;10097;50.862;4.696;2023-05-10T10:25:07;14.60;99.90
19870;DHT22;10097;50.862;4.696;2023-05-10T10:30:31;14.50;99.90
19870;DHT22;10097;50.862;4.696;2023-05-10T10:35:52;14.70;99.90
19870;DHT22;10097;50.862;4.696;2023-05-10T10:38:18;14.60;99.90
19870;DHT22;10097;50.862;4.696;2023-05-10T10:40:44;14.60;99.90
19870;DHT22;10097;50.862;4.696;2023-05-10T10:43:28;14.60;99.90
19870;DHT22;10097;50.862;4.696;2023-05-10T10:48:35;14.60;99.90
19870;DHT22;10097;50.862;4.696;2023-05-10T10:51:01;14.50;99.90
19870;DHT22;10097;50.862;4.696;2023-05-10T10:53:28;14.50;99.90
19870;DHT22;10097;50.862;4.696;2023-05-10T10:56:11;14.40;99.90
19870;DHT22;10097;50.862;4.696;2023-05-10T10:58:39;14.40;99.90
19870;DHT22;10097;50.862;4.696;2023-05-10T11:01:15;14.50;99.90
19870;DHT22;10097;50.862;4.696;2023-05-10T11:06:30;14.60;99.90
19870;DHT22;10097;50.862;4.696;2023-05-10T11:08:58;14.80;99.90
19870;DHT22;10097;50.862;4.696;2023-05-10T11:11:24;15.00;99.90
19870;DHT22;10097;50.862;4.696;2023-05-10T11:13:51;15.40;99.90
19870;DHT22;10097;50.862;4.696;2023-05-10T11:16:24;15.50;99.90
19870;DHT22;10097;50.862;4.696;2023-05-10T11:21:23;15.50;99.90
19870;DHT22;10097;50.862;4.696;2023-05-10T11:23:51;15.60;99.90
19870;DHT22;10097;50.862;4.696;2023-05-10T11:26:18;16.00;99.90
19870;DHT22;10097;50.862;4.696;2023-05-10T11:28:48;16.20;99.90
19870;DHT22;10097;50.862;4.696;2023-05-10T11:31:15;16.60;99.90
19870;DHT22;10097;50.862;4.696;2023-05-10T11:33:45;16.50;99.90
19870;DHT22;10097;50.862;4.696;2023-05-10T11:36:13;16.50;99.90
19870;DHT22;10097;50.862;4.696;2023-05-10T11:38:39;16.30;99.90
19870;DHT22;10097;50.862;4.696;2023-05-10T11:41:05;16.30;99.90
19870;DHT22;10097;50.862;4.696;2023-05-10T11:43:30;16.30;99.90
19870;DHT22;10097;50.862;4.696;2023-05-10T11:45:56;16.30;99.90
19870;DHT22;10097;50.862;4.696;2023-05-10T11:48:22;16.70;99.90
19870;DHT22;10097;50.862;4.696;2023-05-10T11:50:49;17.50;99.90
19870;DHT22;10097;50.862;4.696;2023-05-10T11:53:15;18.10;99.90
19870;DHT22;10097;50.862;4.696;2023-05-10T11:55:41;18.70;99.90
19870;DHT22;10097;50.862;4.696;2023-05-10T11:58:06;18.70;99.90
19870;DHT22;10097;50.862;4.696;2023-05-10T12:00:32;18.60;99.90
19870;DHT22;10097;50.862;4.696;2023-05-10T12:02:59;18.30;99.90
19870;DHT22;10097;50.862;4.696;2023-05-10T12:05:25;18.00;99.90
19870;DHT22;10097;50.862;4.696;2023-05-10T12:07:51;18.00;99.90
19870;DHT22;10097;50.862;4.696;2023-05-10T12:10:25;18.10;99.90
19870;DHT22;10097;50.862;4.696;2023-05-10T12:12:52;18.20;99.90
19870;DHT22;10097;50.862;4.696;2023-05-10T12:15:23;18.30;99.90
19870;DHT22;10097;50.862;4.696;2023-05-10T12:17:50;18.50;99.90
19870;DHT22;10097;50.862;4.696;2023-05-10T12:20:24;18.90;99.90
19870;DHT22;10097;50.862;4.696;2023-05-10T12:22:57;19.10;99.90
19870;DHT22;10097;50.862;4.696;2023-05-10T12:25:29;19.40;99.90
19870;DHT22;10097;50.862;4.696;2023-05-10T12:27:59;20.00;99.90
19870;DHT22;10097;50.862;4.696;2023-05-10T12:30:30;20.00;99.90
19870;DHT22;10097;50.862;4.696;2023-05-10T12:33:09;20.10;99.90
19870;DHT22;10097;50.862;4.696;2023-05-10T12:35:49;19.60;99.90
19870;DHT22;10097;50.862;4.696;2023-05-10T12:40:59;20.30;99.90
19870;DHT22;10097;50.862;4.696;2023-05-10T12:43:25;20.60;99.90
19870;DHT22;10097;50.862;4.696;2023-05-10T12:45:51;20.40;99.90
19870;DHT22;10097;50.862;4.696;2023-05-10T12:48:17;20.50;99.90
19870;DHT22;10097;50.862;4.696;2023-05-10T12:50:43;20.50;99.90
19870;DHT22;10097;50.862;4.696;2023-05-10T12:53:08;20.50;99.90
19870;DHT22;10097;50.862;4.696;2023-05-10T12:55:34;20.20;99.90
19870;DHT22;10097;50.862;4.696;2023-05-10T12:58:00;20.10;99.90
19870;DHT22;10097;50.862;4.696;2023-05-10T13:00:25;19.80;99.90
19870;DHT22;10097;50.862;4.696;2023-05-10T13:02:51;19.70;99.90
19870;DHT22;10097;50.862;4.696;2023-05-10T13:05:17;19.60;99.90
19870;DHT22;10097;50.862;4.696;2023-05-10T13:07:43;19.90;99.90
19870;DHT22;10097;50.862;4.696;2023-05-10T13:10:09;20.30;99.90
19870;DHT22;10097;50.862;4.696;2023-05-10T13:12:35;20.40;99.90
19870;DHT22;10097;50.862;4.696;2023-05-10T13:15:01;20.40;99.90
19870;DHT22;10097;50.862;4.696;2023-05-10T13:17:29;20.70;99.90
19870;DHT22;10097;50.862;4.696;2023-05-10T13:19:54;20.90;99.90
19870;DHT22;10097;50.862;4.696;2023-05-10T13:22:20;21.00;99.90
19870;DHT22;10097;50.862;4.696;2023-05-10T13:24:46;20.60;99.90
19870;DHT22;10097;50.862;4.696;2023-05-10T13:27:11;20.40;99.90
19870;DHT22;10097;50.862;4.696;2023-05-10T13:29:37;20.20;99.90
19870;DHT22;10097;50.862;4.696;2023-05-10T13:32:03;20.10;99.90
19870;DHT22;10097;50.862;4.696;2023-05-10T13:34:28;19.90;99.90
19870;DHT22;10097;50.862;4.696;2023-05-10T13:36:54;20.00;99.90
19870;DHT22;10097;50.862;4.696;2023-05-10T13:39:21;20.00;99.90
19870;DHT22;10097;50.862;4.696;2023-05-10T13:41:47;20.10;99.90
19870;DHT22;10097;50.862;4.696;2023-05-10T13:44:14;20.20;99.90
19870;DHT22;10097;50.862;4.696;2023-05-10T13:46:41;20.20;99.90
19870;DHT22;10097;50.862;4.696;2023-05-10T13:49:08;20.60;99.90
19870;DHT22;10097;50.862;4.696;2023-05-10T13:51:35;20.90;99.90
19870;DHT22;10097;50.862;4.696;2023-05-10T13:54:01;20.90;99.90
19870;DHT22;10097;50.862;4.696;2023-05-10T13:56:27;20.90;99.90
19870;DHT22;10097;50.862;4.696;2023-05-10T13:58:53;20.80;99.90
19870;DHT22;10097;50.862;4.696;2023-05-10T14:01:19;20.50;99.90
19870;DHT22;10097;50.862;4.696;2023-05-10T14:03:44;20.60;99.90
19870;DHT22;10097;50.862;4.696;2023-05-10T14:06:10;20.50;99.90
19870;DHT22;10097;50.862;4.696;2023-05-10T14:08:36;20.20;99.90
19870;DHT22;10097;50.862;4.696;2023-05-10T14:11:02;20.10;99.90
19870;DHT22;10097;50.862;4.696;2023-05-10T14:13:28;19.80;99.90
19870;DHT22;10097;50.862;4.696;2023-05-10T14:15:54;19.80;99.90
19870;DHT22;10097;50.862;4.696;2023-05-10T14:18:20;20.10;99.90
19870;DHT22;10097;50.862;4.696;2023-05-10T14:20:46;20.50;99.90
19870;DHT22;10097;50.862;4.696;2023-05-10T14:23:12;20.30;99.90
19870;DHT22;10097;50.862;4.696;2023-05-10T14:25:40;20.30;99.90
19870;DHT22;10097;50.862;4.696;2023-05-10T14:28:06;20.40;99.90
19870;DHT22;10097;50.862;4.696;2023-05-10T14:30:32;20.80;99.90
19870;DHT22;10097;50.862;4.696;2023-05-10T14:33:00;21.40;99.90
19870;DHT22;10097;50.862;4.696;2023-05-10T14:35:27;21.50;99.90
19870;DHT22;10097;50.862;4.696;2023-05-10T14:37:53;21.70;99.90
19870;DHT22;10097;50.862;4.696;2023-05-10T14:40:18;21.90;99.90
19870;DHT22;10097;50.862;4.696;2023-05-10T14:42:44;21.60;99.90
19870;DHT22;10097;50.862;4.696;2023-05-10T14:45:10;21.70;99.90
19870;DHT22;10097;50.862;4.696;2023-05-10T14:47:36;21.50;99.90
19870;DHT22;10097;50.862;4.696;2023-05-10T14:50:02;21.50;99.90
19870;DHT22;10097;50.862;4.696;2023-05-10T14:52:27;21.10;99.90
19870;DHT22;10097;50.862;4.696;2023-05-10T14:54:53;20.80;99.90
19870;DHT22;10097;50.862;4.696;2023-05-10T14:57:19;20.50;99.90
19870;DHT22;10097;50.862;4.696;2023-05-10T14:59:44;20.40;99.90
19870;DHT22;10097;50.862;4.696;2023-05-10T15:02:10;20.20;99.90
19870;DHT22;10097;50.862;4.696;2023-05-10T15:04:36;20.20;99.90
19870;DHT22;10097;50.862;4.696;2023-05-10T15:07:02;20.20;99.90
19870;DHT22;10097;50.862;4.696;2023-05-10T15:09:28;20.30;99.90
19870;DHT22;10097;50.862;4.696;2023-05-10T15:11:54;20.10;99.90
19870;DHT22;10097;50.862;4.696;2023-05-10T15:14:21;19.90;99.90
19870;DHT22;10097;50.862;4.696;2023-05-10T15:16:47;19.90;99.90
19870;DHT22;10097;50.862;4.696;2023-05-10T15:19:12;20.10;99.90
19870;DHT22;10097;50.862;4.696;2023-05-10T15:21:38;20.40;99.90
19870;DHT22;10097;50.862;4.696;2023-05-10T15:24:07;20.60;99.90
19870;DHT22;10097;50.862;4.696;2023-05-10T15:26:33;20.80;99.90
19870;DHT22;10097;50.862;4.696;2023-05-10T15:28:59;20.90;99.90
19870;DHT22;10097;50.862;4.696;2023-05-10T15:31:25;20.90;99.90
19870;DHT22;10097;50.862;4.696;2023-05-10T15:33:50;20.90;99.90
19870;DHT22;10097;50.862;4.696;2023-05-10T15:36:16;20.80;99.90
19870;DHT22;10097;50.862;4.696;2023-05-10T15:38:43;20.40;99.90
19870;DHT22;10097;50.862;4.696;2023-05-10T15:41:09;20.20;99.90
19870;DHT22;10097;50.862;4.696;2023-05-10T15:43:35;19.70;99.90
19870;DHT22;10097;50.862;4.696;2023-05-10T15:46:01;19.20;99.90
19870;DHT22;10097;50.862;4.696;2023-05-10T15:48:26;18.90;99.90
19870;DHT22;10097;50.862;4.696;2023-05-10T15:50:52;18.40;99.90
19870;DHT22;10097;50.862;4.696;2023-05-10T15:53:18;17.70;99.90
19870;DHT22;10097;50.862;4.696;2023-05-10T15:55:44;17.40;99.90
19870;DHT22;10097;50.862;4.696;2023-05-10T15:58:09;17.10;99.90
19870;DHT22;10097;50.862;4.696;2023-05-10T16:00:35;16.80;99.90
19870;DHT22;10097;50.862;4.696;2023-05-10T16:03:01;16.60;99.90
19870;DHT22;10097;50.862;4.696;2023-05-10T16:05:27;16.40;99.90
19870;DHT22;10097;50.862;4.696;2023-05-10T16:07:56;16.10;99.90
19870;DHT22;10097;50.862;4.696;2023-05-10T16:10:22;16.00;99.90
19870;DHT22;10097;50.862;4.696;2023-05-10T16:12:47;16.00;99.90